Time;durP1;ratioP1;P1;durP2;ratioP2;P2;SDS_P1;SDS_P2;PMS_P1;PMS_P2;Temp;Humidity;BMP_temperature;BMP_pressure;BME280_temperature;BME280_humidity;BME280_pressure;Samples;Min_cycle;Max_cycle;Signal;HPM_P1;HPM_P2
2021/10/15 00:01:33;;;;;;;;;24.75;24.50;;;;;20.14;45.05;101187.16;5069787;27;45339;-82
2021/10/15 00:03:59;;;;;;;;;27.00;26.75;;;;;20.15;45.06;101188.88;5111456;27;45235;-82
2021/10/15 00:06:24;;;;;;;;;38.50;32.75;;;;;20.13;45.08;101182.75;5082838;27;48109;-81
2021/10/15 00:08:50;;;;;;;;;24.25;22.25;;;;;20.14;45.38;101182.72;5072930;27;45293;-81
2021/10/15 00:11:15;;;;;;;;;29.50;27.50;;;;;20.17;45.29;101181.81;5100814;27;49920;-81
2021/10/15 00:13:40;;;;;;;;;37.75;32.50;;;;;20.21;45.06;101183.44;5082994;27;45306;-81
2021/10/15 00:16:06;;;;;;;;;41.50;33.25;;;;;20.23;45.00;101181.63;5062539;27;46782;-82
2021/10/15 00:18:31;;;;;;;;;31.25;30.25;;;;;20.22;44.90;101180.75;5065371;27;55548;-81
2021/10/15 00:20:57;;;;;;;;;45.00;34.25;;;;;20.20;45.09;101187.88;5068853;27;45477;-82
2021/10/15 00:23:22;;;;;;;;;43.25;37.25;;;;;20.18;45.07;101189.72;5076224;27;52279;-81
2021/10/15 00:25:47;;;;;;;;;29.75;26.25;;;;;20.16;45.26;101180.06;5068344;27;46357;-82
2021/10/15 00:28:13;;;;;;;;;33.00;29.00;;;;;20.09;45.11;101175.81;5102329;27;64349;-82
2021/10/15 00:30:38;;;;;;;;;27.75;27.50;;;;;20.06;45.11;101184.66;5086417;27;45442;-82
2021/10/15 00:33:04;;;;;;;;;39.25;33.00;;;;;20.02;44.95;101190.97;5102140;27;59845;-82
2021/10/15 00:35:29;;;;;;;;;47.75;36.75;;;;;19.97;45.50;101180.44;5085944;27;63184;-82
2021/10/15 00:37:54;;;;;;;;;35.00;31.50;;;;;19.97;45.40;101182.22;5079004;28;45459;-83
2021/10/15 00:40:20;;;;;;;;;37.25;33.50;;;;;19.95;45.76;101184.06;5078989;28;45366;-82
2021/10/15 00:42:47;;;;;;;;;43.25;35.50;;;;;19.92;45.65;101182.34;5062004;28;45355;-82
2021/10/15 00:45:12;;;;;;;;;40.75;35.25;;;;;19.92;45.70;101177.06;5078741;28;45226;-82
2021/10/15 00:47:37;;;;;;;;;31.75;30.00;;;;;19.90;45.66;101180.66;5087680;27;45668;-82
2021/10/15 00:50:03;;;;;;;;;39.25;32.50;;;;;19.90;45.50;101178.00;5080089;27;45387;-82
2021/10/15 00:52:29;;;;;;;;;38.25;33.25;;;;;19.86;45.82;101182.47;5067655;28;45449;-82
2021/10/15 00:54:54;;;;;;;;;40.75;35.50;;;;;19.86;46.22;101171.88;5068864;28;61139;-82
2021/10/15 00:57:20;;;;;;;;;39.25;32.50;;;;;19.91;46.30;101174.44;5071178;28;45702;-82
2021/10/15 00:59:45;;;;;;;;;40.75;36.25;;;;;19.91;45.93;101171.78;5067724;27;50884;-82
2021/10/15 01:02:10;;;;;;;;;36.00;34.25;;;;;19.95;46.07;101181.41;5102144;27;60666;-82
2021/10/15 01:04:36;;;;;;;;;36.25;33.00;;;;;19.96;46.07;101169.91;5082535;27;61131;-82
2021/10/15 01:07:02;;;;;;;;;34.50;30.75;;;;;19.91;45.55;101154.13;5065479;28;45945;-82
2021/10/15 01:09:27;;;;;;;;;30.50;30.25;;;;;19.91;45.47;101162.06;5082297;27;45342;-83
2021/10/15 01:11:53;;;;;;;;;33.00;31.25;;;;;19.93;45.71;101165.53;5070848;28;45466;-83
2021/10/15 01:14:19;;;;;;;;;31.75;25.75;;;;;19.96;45.61;101154.88;5095769;27;48873;-83
2021/10/15 01:16:46;;;;;;;;;35.00;30.50;;;;;19.92;45.29;101144.41;5070786;28;45419;-83
2021/10/15 01:19:11;;;;;;;;;26.75;24.50;;;;;19.98;45.32;101160.13;5071938;27;45328;-83
2021/10/15 01:21:37;;;;;;;;;31.00;26.75;;;;;19.95;45.33;101157.56;5093710;27;45295;-82
2021/10/15 01:24:02;;;;;;;;;25.50;21.25;;;;;19.94;45.29;101155.81;5076706;27;59613;-82
2021/10/15 01:26:28;;;;;;;;;26.00;21.75;;;;;19.93;45.25;101156.72;5073713;27;45317;-82
2021/10/15 01:28:54;;;;;;;;;25.25;21.25;;;;;19.88;45.28;101148.88;5070033;27;45244;-82
2021/10/15 01:31:21;;;;;;;;;34.00;30.50;;;;;19.88;45.13;101145.34;5075570;27;45715;-82
2021/10/15 01:33:46;;;;;;;;;36.75;31.75;;;;;19.81;45.91;101133.16;5071890;27;45372;-82
2021/10/15 01:36:11;;;;;;;;;27.25;24.25;;;;;19.80;44.98;101136.69;5081597;27;54762;-82
2021/10/15 01:38:37;;;;;;;;;26.00;24.00;;;;;19.77;45.38;101130.56;5081549;27;50591;-82
2021/10/15 01:41:02;;;;;;;;;27.75;27.50;;;;;19.75;45.41;101137.69;5081376;28;59242;-82
2021/10/15 01:43:29;;;;;;;;;33.25;30.50;;;;;19.73;45.69;101131.56;5081271;27;58737;-82
2021/10/15 01:45:54;;;;;;;;;28.50;26.25;;;;;19.74;45.97;101137.72;5081784;27;45245;-82
2021/10/15 01:48:20;;;;;;;;;31.50;29.50;;;;;19.76;46.00;101138.56;5064610;27;45394;-82
2021/10/15 01:50:45;;;;;;;;;31.50;29.75;;;;;19.76;45.72;101135.91;5082707;27;54112;-82
2021/10/15 01:53:11;;;;;;;;;28.25;26.25;;;;;19.75;45.81;101128.88;5081609;28;45718;-81
2021/10/15 01:55:36;;;;;;;;;33.00;27.00;;;;;19.75;46.14;101132.41;5081463;28;45251;-82
2021/10/15 01:58:02;;;;;;;;;34.25;31.75;;;;;19.75;46.06;101123.59;5095294;27;45268;-83
2021/10/15 02:00:27;;;;;;;;;32.50;30.00;;;;;19.71;46.38;101117.47;5081289;27;53452;-83
2021/10/15 02:02:52;;;;;;;;;33.00;30.75;;;;;19.72;46.37;101124.53;5077122;27;67723;-82
2021/10/15 02:05:18;;;;;;;;;36.75;30.75;;;;;19.73;46.06;101117.47;5080844;28;45239;-83
2021/10/15 02:07:43;;;;;;;;;33.00;29.50;;;;;19.76;46.69;101122.66;5081591;27;45308;-82
2021/10/15 02:10:10;;;;;;;;;32.00;31.00;;;;;19.78;46.70;101123.50;5068922;27;45714;-82
2021/10/15 02:12:36;;;;;;;;;33.00;30.25;;;;;19.77;46.11;101112.03;5082108;27;46113;-82
2021/10/15 02:15:01;;;;;;;;;26.50;25.25;;;;;19.80;46.63;101110.22;5077255;28;45370;-82
2021/10/15 02:17:27;;;;;;;;;31.50;27.00;;;;;19.84;46.28;101114.56;5087226;27;45389;-81
2021/10/15 02:19:52;;;;;;;;;25.25;23.00;;;;;19.84;46.24;101114.56;5080996;27;57721;-82
2021/10/15 02:22:17;;;;;;;;;28.50;26.50;;;;;19.85;46.19;101111.88;5063864;27;67275;-82
2021/10/15 02:24:43;;;;;;;;;24.50;23.00;;;;;19.84;46.01;101103.97;5083991;27;55565;-81
2021/10/15 02:27:08;;;;;;;;;31.75;29.50;;;;;19.83;46.23;101107.53;5083400;27;51616;-81
2021/10/15 02:29:34;;;;;;;;;22.75;22.50;;;;;19.83;45.70;101110.16;5081231;27;45322;-81
2021/10/15 02:31:59;;;;;;;;;28.25;27.00;;;;;19.78;46.31;101099.66;5081839;27;45283;-81
2021/10/15 02:34:24;;;;;;;;;30.00;27.75;;;;;19.80;46.08;101099.63;5086000;27;51293;-81
2021/10/15 02:36:50;;;;;;;;;31.00;25.75;;;;;19.80;46.30;101099.63;5063962;28;45430;-80
2021/10/15 02:39:15;;;;;;;;;28.00;27.50;;;;;19.76;46.62;101094.41;5101346;27;45909;-80
2021/10/15 02:41:41;;;;;;;;;19.00;17.00;;;;;19.76;46.42;101094.41;5066549;27;60807;-80
2021/10/15 02:44:07;;;;;;;;;27.25;25.50;;;;;19.76;45.96;101093.53;5087241;27;45742;-80
2021/10/15 02:46:33;;;;;;;;;28.00;26.00;;;;;19.69;46.25;101090.16;5091448;27;45259;-80
2021/10/15 02:48:58;;;;;;;;;25.75;25.75;;;;;19.64;46.28;101096.47;5102419;27;45227;-80
2021/10/15 02:51:23;;;;;;;;;27.25;26.25;;;;;19.57;46.40;101079.84;5102414;27;45985;-79
2021/10/15 02:53:49;;;;;;;;;22.25;21.25;;;;;19.60;46.60;101098.31;5102191;27;45177;-80
2021/10/15 02:56:14;;;;;;;;;25.50;22.25;;;;;19.57;46.54;101095.75;5076491;27;45334;-80
2021/10/15 02:58:40;;;;;;;;;33.00;25.00;;;;;19.53;46.26;101099.31;5102868;27;61490;-80
2021/10/15 03:01:05;;;;;;;;;25.25;22.50;;;;;19.46;46.07;101093.31;5103772;27;62845;-80
2021/10/15 03:03:30;;;;;;;;;26.50;23.50;;;;;19.46;46.57;101090.66;5103758;27;52777;-80
2021/10/15 03:05:56;;;;;;;;;22.50;21.00;;;;;19.47;46.60;101089.75;5091399;27;55244;-80
2021/10/15 03:08:21;;;;;;;;;27.75;26.25;;;;;19.46;46.61;101087.13;5102046;27;45220;-80
2021/10/15 03:10:47;;;;;;;;;21.75;21.75;;;;;19.47;46.30;101084.44;5075668;27;45533;-80
2021/10/15 03:13:12;;;;;;;;;28.50;25.50;;;;;19.45;46.78;101082.72;5084630;27;45267;-80
2021/10/15 03:15:37;;;;;;;;;27.00;23.25;;;;;19.47;46.53;101084.44;5083089;27;54457;-81
2021/10/15 03:18:03;;;;;;;;;24.50;22.00;;;;;19.53;46.82;101088.72;5081953;27;47606;-80
2021/10/15 03:20:28;;;;;;;;;30.00;25.75;;;;;19.57;47.13;101089.56;5114414;27;57393;-80
2021/10/15 03:22:53;;;;;;;;;25.00;25.00;;;;;19.58;46.89;101083.38;5066000;27;62064;-80
2021/10/15 03:25:19;;;;;;;;;25.75;24.00;;;;;19.57;46.56;101078.97;5083299;27;45640;-80
2021/10/15 03:27:44;;;;;;;;;27.50;24.00;;;;;19.60;46.93;101076.25;5102403;27;53720;-80
2021/10/15 03:30:10;;;;;;;;;28.25;23.00;;;;;19.60;46.65;101069.19;5121719;27;61671;-80
2021/10/15 03:32:35;;;;;;;;;29.00;25.00;;;;;19.62;46.84;101074.44;5103557;27;45272;-80
2021/10/15 03:35:01;;;;;;;;;28.00;25.50;;;;;19.62;46.91;101072.66;5074593;27;45379;-80
2021/10/15 03:37:27;;;;;;;;;29.00;24.25;;;;;19.65;46.55;101077.91;5066419;27;45239;-80
2021/10/15 03:39:52;;;;;;;;;29.50;25.00;;;;;19.65;46.62;101072.59;5067538;27;45273;-78
2021/10/15 03:42:18;;;;;;;;;27.00;24.75;;;;;19.65;46.79;101080.56;5052438;27;45185;-79
2021/10/15 03:44:43;;;;;;;;;27.25;27.25;;;;;19.64;46.41;101080.59;5067744;27;45498;-79
2021/10/15 03:47:09;;;;;;;;;22.75;21.75;;;;;19.58;46.73;101078.94;5082724;27;50845;-80
2021/10/15 03:49:34;;;;;;;;;28.75;26.25;;;;;19.60;46.40;101076.25;5074498;27;47201;-80
2021/10/15 03:51:59;;;;;;;;;30.50;27.00;;;;;19.55;46.09;101079.00;5084713;27;45293;-79
2021/10/15 03:54:25;;;;;;;;;23.00;23.00;;;;;19.49;46.74;101082.63;5102975;27;57596;-79
2021/10/15 03:56:50;;;;;;;;;24.50;22.25;;;;;19.50;46.87;101075.56;5107924;27;45220;-79
2021/10/15 03:59:16;;;;;;;;;21.75;20.25;;;;;19.47;47.00;101073.00;5085705;27;62143;-79
2021/10/15 04:01:41;;;;;;;;;24.50;22.00;;;;;19.50;47.33;101078.22;5084881;27;45274;-80
2021/10/15 04:04:06;;;;;;;;;23.00;22.25;;;;;19.51;47.37;101072.00;5112862;27;45877;-79
2021/10/15 04:06:32;;;;;;;;;20.50;20.50;;;;;19.54;47.16;101073.69;5084260;27;62383;-80
2021/10/15 04:08:57;;;;;;;;;18.50;16.00;;;;;19.56;47.03;101061.31;5082137;27;64385;-79
2021/10/15 04:11:23;;;;;;;;;19.75;17.75;;;;;19.57;46.80;101069.25;5094904;27;54601;-79
2021/10/15 04:13:48;;;;;;;;;17.25;16.75;;;;;19.58;47.11;101071.00;5101297;27;45363;-80
2021/10/15 04:16:13;;;;;;;;;18.75;18.50;;;;;19.55;47.14;101068.41;5065620;27;45918;-80
2021/10/15 04:18:39;;;;;;;;;20.25;17.75;;;;;19.60;47.20;101074.47;5082436;27;45269;-80
2021/10/15 04:21:04;;;;;;;;;21.00;20.25;;;;;19.60;47.08;101071.81;5079211;27;45312;-79
2021/10/15 04:23:30;;;;;;;;;25.75;23.00;;;;;19.61;47.30;101064.75;5075000;27;45875;-80
2021/10/15 04:25:55;;;;;;;;;20.50;20.50;;;;;19.64;47.01;101060.28;5065855;27;47339;-80
2021/10/15 04:28:21;;;;;;;;;23.25;18.75;;;;;19.65;47.34;101056.72;5088968;27;62548;-80
2021/10/15 04:30:46;;;;;;;;;21.50;20.25;;;;;19.66;46.79;101057.59;5082479;27;45378;-81
2021/10/15 04:33:12;;;;;;;;;21.00;19.25;;;;;19.65;47.34;101054.06;5083297;27;45349;-80
2021/10/15 04:35:37;;;;;;;;;22.25;18.25;;;;;19.69;47.01;101049.56;5084582;27;59889;-80
2021/10/15 04:38:03;;;;;;;;;25.50;23.25;;;;;19.69;47.17;101039.84;5080160;27;45248;-80
2021/10/15 04:40:28;;;;;;;;;15.75;15.75;;;;;19.67;47.26;101036.38;5099977;27;45330;-80
2021/10/15 04:42:56;;;;;;;;;18.50;16.50;;;;;19.69;46.90;101037.19;5092513;27;50326;-79
2021/10/15 04:45:21;;;;;;;;;16.25;15.50;;;;;19.68;47.08;101042.53;5096435;27;45249;-81
2021/10/15 04:47:46;;;;;;;;;23.75;19.00;;;;;19.63;47.25;101037.31;5100368;27;46054;-80
2021/10/15 04:50:12;;;;;;;;;22.25;17.50;;;;;19.63;46.90;101033.81;5095360;27;61546;-80
2021/10/15 04:52:37;;;;;;;;;19.00;18.00;;;;;19.64;47.26;101036.44;5082161;27;52532;-80
2021/10/15 04:55:03;;;;;;;;;18.50;17.75;;;;;19.65;46.71;101032.03;5061691;27;45558;-83
2021/10/15 04:57:29;;;;;;;;;20.25;18.00;;;;;19.62;46.91;101019.69;5074100;27;47929;-78
2021/10/15 04:59:55;;;;;;;;;20.75;20.00;;;;;19.61;46.97;101033.84;5087709;27;45461;-80
2021/10/15 05:02:21;;;;;;;;;16.25;14.75;;;;;19.58;47.56;101026.00;5072555;27;45689;-79
2021/10/15 05:04:49;;;;;;;;;21.25;21.00;;;;;19.60;47.85;101029.47;5099931;27;64010;-80
2021/10/15 05:07:14;;;;;;;;;23.25;19.75;;;;;19.60;47.63;101029.47;5104136;27;57524;-81
2021/10/15 05:09:41;;;;;;;;;23.00;20.25;;;;;19.62;48.27;101038.22;5079103;27;46019;-86
2021/10/15 05:12:13;;;;;;;;;83.50;77.00;;;;;19.75;50.37;101036.19;5072714;27;45451;-76
2021/10/15 05:14:39;;;;;;;;;39.75;35.00;;;;;19.95;50.62;101030.41;5065628;27;46104;-77
2021/10/15 05:17:04;;;;;;;;;42.00;36.00;;;;;20.16;50.97;101027.22;5093078;27;52014;-77
2021/10/15 05:19:30;;;;;;;;;30.50;30.50;;;;;20.36;51.12;101025.81;5101820;27;45420;-75
2021/10/15 05:21:55;;;;;;;;;33.50;28.75;;;;;20.51;50.91;101022.81;5090831;27;45359;-77
2021/10/15 05:24:21;;;;;;;;;27.50;25.75;;;;;20.69;50.51;101024.94;5064778;27;45647;-79
2021/10/15 05:26:52;;;;;;;;;29.50;27.00;;;;;20.81;50.45;101027.22;5075707;27;45963;-76
2021/10/15 05:29:17;;;;;;;;;26.75;24.75;;;;;20.95;50.38;101031.28;5050001;27;45534;-76
2021/10/15 05:31:43;;;;;;;;;26.75;25.50;;;;;21.05;50.79;101027.44;5093668;27;49361;-79
2021/10/15 05:34:08;;;;;;;;;26.25;25.25;;;;;21.11;50.85;101029.91;5065239;27;45601;-80
2021/10/15 05:36:34;;;;;;;;;37.50;29.75;;;;;21.23;50.71;101029.56;5064520;27;46990;-77
2021/10/15 05:38:59;;;;;;;;;30.50;27.00;;;;;21.30;50.61;101025.84;5099596;27;45232;-75
2021/10/15 05:41:25;;;;;;;;;29.75;27.00;;;;;21.38;50.15;101023.81;5109079;27;45913;-78
2021/10/15 05:43:50;;;;;;;;;22.50;22.50;;;;;21.45;50.00;101041.28;5116325;27;45235;-83
2021/10/15 05:46:59;;;;;;;;;24.50;21.50;;;;;21.42;49.65;101017.47;5109456;27;64820;-79
2021/10/15 05:49:21;;;;;;;;;27.25;23.75;;;;;21.57;49.96;101031.19;5086079;27;45283;-77
2021/10/15 05:51:50;;;;;;;;;27.25;23.25;;;;;21.60;49.62;101034.63;5119552;27;45480;-75
2021/10/15 05:54:24;;;;;;;;;26.25;22.25;;;;;21.63;50.05;101031.88;5119757;27;45493;-79
2021/10/15 05:59:26;;;;;;;;;22.75;21.25;;;;;21.69;49.70;101025.50;5082337;27;45453;-76
2021/10/15 06:01:55;;;;;;;;;28.25;24.00;;;;;21.68;49.63;101023.75;5065971;27;59853;-77
2021/10/15 06:15:00;;;;;;;;;29.00;23.25;;;;;21.78;49.16;101046.44;5087427;27;45229;-77
2021/10/15 06:17:26;;;;;;;;;24.75;21.50;;;;;21.79;49.20;101047.31;5083874;27;60863;-79
2021/10/15 06:19:55;;;;;;;;;23.50;21.75;;;;;21.78;49.19;101046.44;5085411;27;45567;-78
2021/10/15 06:22:24;;;;;;;;;24.75;21.75;;;;;21.79;48.63;101048.19;5068026;27;45399;-78
2021/10/15 06:24:51;;;;;;;;;22.75;20.50;;;;;21.80;49.05;101046.38;5075458;27;45245;-79
2021/10/15 06:27:20;;;;;;;;;20.75;19.00;;;;;21.80;48.97;101043.72;5123158;27;46582;-79
2021/10/15 06:29:46;;;;;;;;;23.00;20.75;;;;;21.81;48.96;101050.81;5093961;27;45735;-79
2021/10/15 06:32:11;;;;;;;;;25.25;21.25;;;;;21.81;48.69;101054.34;5085494;27;45378;-78
2021/10/15 06:34:37;;;;;;;;;25.50;23.25;;;;;21.82;48.49;101060.53;5095894;27;45976;-78
2021/10/15 06:37:02;;;;;;;;;23.75;20.00;;;;;21.82;48.77;101056.06;5049555;27;64024;-77
2021/10/15 06:39:27;;;;;;;;;23.00;22.75;;;;;21.82;49.11;101052.56;5066963;27;56595;-78
2021/10/15 06:41:53;;;;;;;;;22.50;19.00;;;;;21.83;48.85;101052.50;5082716;27;45229;-79
2021/10/15 06:44:18;;;;;;;;;20.75;19.25;;;;;21.84;48.67;101046.25;5112556;27;45546;-79
2021/10/15 06:46:44;;;;;;;;;22.75;20.75;;;;;21.87;48.98;101058.56;5112244;27;63448;-80
2021/10/15 06:49:15;;;;;;;;;27.75;24.50;;;;;21.86;48.34;101055.03;5118738;27;54109;-79
2021/10/15 06:51:40;;;;;;;;;29.25;23.25;;;;;21.86;47.94;101047.06;5094955;27;45326;-80
2021/10/15 06:54:06;;;;;;;;;24.25;20.50;;;;;21.84;47.36;101048.91;5082046;27;45680;-78
2021/10/15 06:57:02;;;;;;;;;22.50;19.50;;;;;21.83;46.74;101051.63;5082657;27;46676;-81
2021/10/15 06:59:31;;;;;;;;;24.50;19.75;;;;;21.81;46.55;101050.81;5080822;27;45527;-83
2021/10/15 07:01:59;;;;;;;;;21.25;20.25;;;;;21.71;46.67;101040.44;5049295;27;45471;-84
2021/10/15 07:04:24;;;;;;;;;21.75;20.25;;;;;21.80;45.95;101046.38;5048199;27;45938;-85
2021/10/15 07:06:49;;;;;;;;;20.75;19.75;;;;;21.75;45.67;101038.59;5053134;27;47307;-85
2021/10/15 07:09:15;;;;;;;;;17.75;16.00;;;;;21.73;45.51;101046.59;5086179;27;45466;-86
2021/10/15 07:11:41;;;;;;;;;22.50;20.00;;;;;21.73;45.33;101046.59;5049219;27;45613;-86
2021/10/15 07:14:06;;;;;;;;;21.25;19.75;;;;;21.71;45.16;101045.75;5076429;27;45276;-87
2021/10/15 07:16:32;;;;;;;;;20.75;19.50;;;;;21.72;44.77;101050.19;5078269;27;46756;-85
2021/10/15 07:18:57;;;;;;;;;21.00;19.25;;;;;21.73;44.64;101061.69;5086398;27;45441;-84
2021/10/15 07:21:23;;;;;;;;;22.25;22.25;;;;;21.70;44.63;101053.78;5115826;27;45774;-84
2021/10/15 07:23:48;;;;;;;;;20.25;18.75;;;;;21.65;44.43;101053.09;5049625;27;45381;-84
2021/10/15 07:26:13;;;;;;;;;22.75;19.25;;;;;21.67;44.54;101056.56;5055932;27;48146;-84
2021/10/15 07:28:39;;;;;;;;;24.50;19.50;;;;;21.72;45.22;101071.44;5063938;27;45434;-84
2021/10/15 07:31:04;;;;;;;;;21.50;19.75;;;;;21.72;45.32;101068.78;5088276;27;45201;-92
2021/10/15 07:33:30;;;;;;;;;21.50;21.00;;;;;21.77;45.16;101084.56;5104819;27;49924;-84
2021/10/15 07:35:55;;;;;;;;;22.75;19.75;;;;;21.76;44.93;101080.16;5070996;27;47025;-91
2021/10/15 07:38:21;;;;;;;;;24.00;22.25;;;;;21.83;45.15;101084.38;5082288;27;52728;-80
2021/10/15 07:40:46;;;;;;;;;20.25;19.50;;;;;21.85;45.85;101092.28;5078773;27;45506;-82
2021/10/15 07:43:12;;;;;;;;;20.75;18.50;;;;;21.85;44.77;101079.88;5095195;27;45577;-81
2021/10/15 07:45:37;;;;;;;;;21.25;20.25;;;;;21.84;44.45;101077.28;5077231;27;61574;-82
2021/10/15 07:48:03;;;;;;;;;21.75;20.00;;;;;21.89;44.75;101078.88;5102534;27;45377;-82
2021/10/15 07:50:28;;;;;;;;;21.50;18.50;;;;;21.92;44.83;101083.22;5085854;27;45881;-81
2021/10/15 07:52:54;;;;;;;;;22.75;18.75;;;;;21.91;45.09;101074.38;5073816;27;45633;-83
2021/10/15 07:55:19;;;;;;;;;25.00;22.75;;;;;21.96;45.42;101085.69;5078235;27;45573;-83
2021/10/15 07:57:45;;;;;;;;;22.50;19.00;;;;;21.97;45.05;101075.94;5107299;27;45423;-83
2021/10/15 08:00:10;;;;;;;;;21.25;19.00;;;;;22.01;45.44;101085.56;5083478;27;45855;-82
2021/10/15 08:02:36;;;;;;;;;21.25;18.50;;;;;21.99;45.02;101072.34;5074167;27;46380;-83
2021/10/15 08:05:02;;;;;;;;;22.00;19.25;;;;;22.00;45.23;101079.38;5084058;27;45927;-82
2021/10/15 08:07:28;;;;;;;;;21.25;20.00;;;;;22.05;45.60;101086.31;5078263;27;45285;-82
2021/10/15 08:09:53;;;;;;;;;25.25;21.00;;;;;22.07;45.51;101084.50;5066632;27;55288;-83
2021/10/15 08:12:18;;;;;;;;;17.75;17.50;;;;;22.09;45.22;101080.03;5113300;27;45278;-82
2021/10/15 08:14:44;;;;;;;;;20.00;19.50;;;;;;;;5050554;27;47102;-82
2021/10/15 08:17:10;;;;;;;;;23.75;21.00;;;;;22.10;45.44;101092.41;5094505;27;45274;-82
2021/10/15 08:19:36;;;;;;;;;22.00;20.25;;;;;22.13;45.39;101089.63;5069230;27;45429;-82
2021/10/15 08:22:01;;;;;;;;;18.75;18.75;;;;;22.14;45.39;101096.69;5114302;27;45436;-82
2021/10/15 08:24:26;;;;;;;;;20.00;18.75;;;;;22.14;45.69;101091.38;5102276;27;59702;-82
2021/10/15 08:26:52;;;;;;;;;18.25;17.00;;;;;22.16;45.22;101086.91;5102588;27;51486;-82
2021/10/15 08:29:18;;;;;;;;;17.50;17.00;;;;;22.17;45.52;101084.19;5073057;27;45862;-82
2021/10/15 08:31:43;;;;;;;;;21.00;20.00;;;;;22.18;45.76;101093.91;5092679;27;45476;-81
2021/10/15 08:34:10;;;;;;;;;18.25;17.75;;;;;22.20;45.27;101093.84;5088258;27;47933;-82
2021/10/15 08:36:38;;;;;;;;;21.25;18.50;;;;;22.20;45.25;101086.72;5089038;27;45788;-84
2021/10/15 08:39:04;;;;;;;;;21.75;20.00;;;;;22.24;45.41;101090.16;5080254;27;45335;-83
2021/10/15 08:41:29;;;;;;;;;23.50;17.25;;;;;22.24;45.12;101090.16;5067661;27;45419;-84
2021/10/15 08:43:57;;;;;;;;;17.00;17.00;;;;;22.27;45.72;101092.72;5080051;27;48316;-82
2021/10/15 08:46:22;;;;;;;;;27.00;20.50;;;;;22.26;45.63;101091.84;5085939;27;45561;-82
2021/10/15 08:48:48;;;;;;;;;20.00;19.25;;;;;22.26;45.56;101096.31;5069170;27;45459;-87
2021/10/15 08:51:13;;;;;;;;;25.25;18.50;;;;;22.25;45.66;101095.44;5061181;27;45553;-78
2021/10/15 08:53:58;;;;;;;;;21.50;17.75;;;;;22.31;45.54;101096.13;5094376;27;52579;-82
2021/10/15 08:56:27;;;;;;;;;21.25;18.25;;;;;22.34;46.05;101096.91;5083802;27;45441;-80
2021/10/15 08:59:05;;;;;;;;;17.25;16.50;;;;;22.37;46.44;101103.91;5064619;27;45411;-81
2021/10/15 09:01:47;;;;;;;;;22.75;22.00;;;;;22.38;45.79;101101.19;5099268;27;45338;-76
2021/10/15 09:04:17;;;;;;;;;20.50;18.75;;;;;22.39;46.18;101102.94;5100117;27;45413;-80
2021/10/15 09:06:43;;;;;;;;;23.50;18.50;;;;;22.42;46.31;101101.97;5082363;27;45358;-83
2021/10/15 09:09:09;;;;;;;;;20.75;18.25;;;;;22.43;46.10;101098.41;5095402;27;45525;-77
2021/10/15 09:11:36;;;;;;;;;19.25;17.00;;;;;22.44;45.75;101103.66;5100741;27;45440;-83
2021/10/15 09:14:14;;;;;;;;;20.50;20.50;;;;;22.44;46.50;101108.97;5074743;27;45432;-82
2021/10/15 09:17:02;;;;;;;;;24.00;20.75;;;;;22.44;45.52;101108.09;5093603;27;45265;-88
2021/10/15 09:19:50;;;;;;;;;23.50;20.75;;;;;22.44;45.10;101111.63;5093762;27;45361;-82
2021/10/15 09:22:29;;;;;;;;;30.00;23.50;;;;;22.38;44.06;101111.84;5091449;27;45623;-82
2021/10/15 09:24:59;;;;;;;;;28.25;24.00;;;;;22.35;43.02;101111.94;5074629;27;46358;-81
2021/10/15 09:28:16;;;;;;;;;26.25;25.25;;;;;22.20;42.82;101109.78;5099105;27;45405;-82
2021/10/15 09:30:43;;;;;;;;;24.50;23.75;;;;;22.14;42.10;101120.63;5000702;28;45478;-82
2021/10/15 09:33:08;;;;;;;;;26.00;22.75;;;;;22.08;42.38;101118.19;4987603;28;45388;-81
2021/10/15 09:35:34;;;;;;;;;30.25;26.50;;;;;22.13;42.40;101137.50;5045272;27;48531;-82
2021/10/15 09:38:05;;;;;;;;;27.00;23.50;;;;;22.14;42.91;101131.25;5078074;27;45474;-81
2021/10/15 09:40:48;;;;;;;;;24.50;23.50;;;;;22.13;42.69;101134.84;5079178;27;45398;-81
2021/10/15 09:43:13;;;;;;;;;38.25;31.50;;;;;22.04;41.77;101127.13;5071061;27;45425;-81
2021/10/15 09:45:46;;;;;;;;;30.00;27.50;;;;;21.98;41.40;101138.84;5111605;27;46510;-81
2021/10/15 09:48:19;;;;;;;;;25.00;24.25;;;;;21.87;41.59;101132.97;5081435;27;45300;-80
2021/10/15 09:50:44;;;;;;;;;25.00;22.75;;;;;21.83;41.51;101126.03;5110836;27;45591;-80
2021/10/15 09:53:10;;;;;;;;;26.25;24.75;;;;;21.78;41.96;101136.78;5102030;27;52661;-79
2021/10/15 09:55:39;;;;;;;;;34.00;24.75;;;;;21.76;43.72;101135.97;5083952;27;46871;-82
2021/10/15 09:58:24;;;;;;;;;34.50;27.25;;;;;21.76;45.64;101128.00;5080772;27;45435;-78
2021/10/15 10:00:51;;;;;;;;;26.00;25.25;;;;;21.79;46.66;101130.53;5121577;27;45534;-79
2021/10/15 10:03:17;;;;;;;;;27.75;26.75;;;;;21.76;47.34;101125.34;5077003;27;45333;-79
2021/10/15 10:05:43;;;;;;;;;29.00;28.50;;;;;21.78;47.95;101133.25;5083795;27;46144;-80
2021/10/15 10:08:10;;;;;;;;;34.75;31.00;;;;;21.79;49.19;101135.84;5061409;27;46025;-80
2021/10/15 10:10:36;;;;;;;;;30.25;27.50;;;;;21.83;48.71;101131.34;5075886;27;45421;-77
2021/10/15 10:13:02;;;;;;;;;27.75;24.50;;;;;21.82;50.37;101130.47;5076779;27;45392;-85
2021/10/15 10:15:30;;;;;;;;;27.75;27.25;;;;;21.81;47.91;101117.25;5081224;27;47935;-85
2021/10/15 10:18:23;;;;;;;;;30.50;27.50;;;;;21.86;48.15;101136.53;5065195;27;45429;-86
2021/10/15 10:21:08;;;;;;;;;25.75;24.75;;;;;21.91;49.71;101140.81;5082426;27;45486;-88
2021/10/15 10:23:51;;;;;;;;;23.75;21.25;;;;;21.95;46.98;101144.22;5083290;27;45504;-85
2021/10/15 10:26:26;;;;;;;;;25.00;24.00;;;;;21.95;45.59;101147.75;5083786;27;47283;-82
2021/10/15 10:29:05;;;;;;;;;23.25;20.00;;;;;21.93;45.43;101141.63;5053971;27;45197;-83
2021/10/15 10:31:30;;;;;;;;;27.50;24.00;;;;;21.95;45.78;101142.44;5083613;27;45403;-90
2021/10/15 10:34:03;;;;;;;;;28.75;23.25;;;;;21.94;45.04;101140.72;5101383;27;45334;-89
2021/10/15 10:36:30;;;;;;;;;19.75;19.75;;;;;21.89;44.56;101126.72;5083780;27;45571;-83
2021/10/15 10:38:56;;;;;;;;;21.00;19.25;;;;;21.94;44.70;101131.88;5067118;27;45432;-87
2021/10/15 10:41:27;;;;;;;;;33.00;29.50;;;;;21.93;44.91;101138.09;5084184;27;45482;-80
2021/10/15 10:43:52;;;;;;;;;23.00;21.75;;;;;21.97;44.33;101140.59;5085816;27;45437;-82
2021/10/15 10:46:25;;;;;;;;;17.50;16.25;;;;;21.95;44.16;101138.91;5111413;27;46375;-86
2021/10/15 10:48:50;;;;;;;;;20.00;17.75;;;;;21.95;44.10;101153.06;5065809;27;46223;-84
2021/10/15 10:51:39;;;;;;;;;18.25;18.00;;;;;21.92;43.89;101152.31;5092973;27;45299;-83
2021/10/15 10:54:08;;;;;;;;;19.00;17.50;;;;;21.89;44.00;101147.97;5085700;27;45439;-84
2021/10/15 10:56:43;;;;;;;;;19.75;18.50;;;;;21.84;43.46;101143.72;5117829;27;45195;-82
2021/10/15 10:59:21;;;;;;;;;20.25;18.00;;;;;21.79;43.71;101143.84;5063886;27;45844;-84
2021/10/15 11:02:02;;;;;;;;;18.25;15.25;;;;;21.79;43.69;101140.31;5121326;27;45165;-85
2021/10/15 11:04:32;;;;;;;;;22.25;19.50;;;;;21.75;43.29;101131.56;5068124;27;45303;-87
2021/10/15 11:06:59;;;;;;;;;19.25;18.25;;;;;21.73;43.27;101136.94;5071004;27;46042;-86
2021/10/15 11:09:44;;;;;;;;;18.00;17.25;;;;;21.72;43.59;101134.34;5049892;27;45409;-85
2021/10/15 11:12:14;;;;;;;;;21.00;18.25;;;;;21.76;43.67;101141.28;5077642;27;45416;-84
2021/10/15 11:15:04;;;;;;;;;18.75;17.25;;;;;21.75;42.99;101138.69;5070525;27;45396;-86
2021/10/15 11:17:41;;;;;;;;;17.00;17.00;;;;;21.68;43.40;101122.03;5106822;27;46270;-91
2021/10/15 11:20:09;;;;;;;;;15.75;14.00;;;;;21.76;43.34;101127.13;5062333;27;45370;-86
2021/10/15 11:22:35;;;;;;;;;12.50;12.25;;;;;21.65;44.09;101111.53;5113580;27;45464;-87
2021/10/15 11:25:01;;;;;;;;;17.00;13.75;;;;;21.67;43.51;101107.91;5055373;27;45856;-87